Terminal Aerodrome Forecast
Issued by NWS

Home | Current Version | Previous Version | Text Only | Print | Product List | Glossary On
Versions: 1 2 3 4 5 6 7 8 9 10 11 12 13 14 15
000
FTUS41 KPBZ 121700
TAFBVI
TAF
KBVI 121730Z 1218/1318 23007KT P6SM SCT050 BKN200
     FM130300 20006KT P6SM -SHRA BKN040
     FM131400 21008G15KT P6SM -RA VCTS BKN050CB=

USA.gov is the U.S. government's official web portal to all federal, state and local government web resources and services.